Time;durP1;ratioP1;P1;durP2;ratioP2;P2;SDS_P1;SDS_P2;PMS_P1;PMS_P2;Temp;Humidity;BMP_temperature;BMP_pressure;BME280_temperature;BME280_humidity;BME280_pressure;Samples;Min_cycle;Max_cycle;Signal;HPM_P1;HPM_P2
2022/04/24 00:01:53;;;;;;;31.25;14.85;;;;;;;8.05;92.07;96508.19;5108384;28;20136;-66
2022/04/24 00:04:19;;;;;;;26.27;12.05;;;;;;;8.05;92.48;96513.44;5108371;28;20263;-66
2022/04/24 00:06:46;;;;;;;57.58;23.80;;;;;;;8.02;92.34;96502.22;5108106;28;20019;-66
2022/04/24 00:09:15;;;;;;;40.08;17.42;;;;;;;8.06;92.54;96504.66;5107508;28;20065;-66
2022/04/24 00:11:41;;;;;;;48.70;19.25;;;;;;;8.12;92.81;96501.75;5094894;28;20339;-66
2022/04/24 00:14:10;;;;;;;52.72;20.50;;;;;;;8.16;92.79;96500.69;5087927;28;20021;-66
2022/04/24 00:16:39;;;;;;;70.28;26.83;;;;;;;8.24;91.39;96508.25;5087695;28;20029;-66
2022/04/24 00:19:05;;;;;;;67.53;25.30;;;;;;;8.16;91.35;96511.19;5087681;28;20028;-66
2022/04/24 00:21:31;;;;;;;54.65;24.75;;;;;;;8.20;91.09;96517.97;5087638;28;20028;-66
2022/04/24 00:23:57;;;;;;;61.60;23.63;;;;;;;8.06;90.98;96502.03;5087872;28;20086;-66
2022/04/24 00:26:23;;;;;;;48.63;21.55;;;;;;;8.12;92.32;96504.38;5087578;28;20028;-66
2022/04/24 00:28:49;;;;;;;32.15;16.80;;;;;;;8.25;93.25;96500.34;5087975;28;20020;-66
2022/04/24 00:31:14;;;;;;;22.45;12.30;;;;;;;8.46;93.96;96509.88;5092837;28;20338;-66
2022/04/24 00:33:40;;;;;;;47.70;21.48;;;;;;;8.22;92.02;96503.09;5107514;28;20020;-66
2022/04/24 00:36:05;;;;;;;49.72;21.05;;;;;;;8.24;91.74;96498.66;5107432;28;20039;-66
2022/04/24 00:38:32;;;;;;;29.70;14.90;;;;;;;8.35;92.11;96506.88;5106823;28;20028;-66
2022/04/24 00:40:58;;;;;;;35.20;15.77;;;;;;;8.43;92.12;96515.25;5107453;28;20331;-66
2022/04/24 00:43:24;;;;;;;27.27;14.27;;;;;;;8.53;92.23;96515.69;5107435;28;20050;-66
2022/04/24 00:46:10;;;;;;;27.58;13.77;;;;;;;8.54;92.99;96512.13;5107424;28;20020;-66
2022/04/24 00:48:35;;;;;;;29.00;12.95;;;;;;;8.58;92.34;96518.97;5107577;28;20065;-66
2022/04/24 00:51:01;;;;;;;18.48;10.57;;;;;;;8.78;93.50;96517.13;5107518;28;20024;-66
2022/04/24 00:53:26;;;;;;;37.63;16.83;;;;;;;8.76;91.36;96518.97;5107715;28;20079;-66
2022/04/24 00:55:52;;;;;;;22.75;12.65;;;;;;;8.77;91.65;96528.53;5107380;28;20077;-66
2022/04/24 00:58:18;;;;;;;35.72;13.13;;;;;;;8.89;91.47;96528.91;5107913;28;20052;-66
2022/04/24 01:00:44;;;;;;;22.23;10.57;;;;;;;8.97;91.89;96532.88;5107939;28;20272;-66
2022/04/24 01:03:12;;;;;;;29.77;13.52;;;;;;;9.01;90.82;96546.72;5107603;28;20016;-66
2022/04/24 01:05:38;;;;;;;28.33;13.60;;;;;;;8.99;91.00;96556.41;5107542;28;20015;-66
2022/04/24 01:08:03;;;;;;;22.65;11.55;;;;;;;9.03;91.35;96563.22;5106730;28;20036;-66
2022/04/24 01:10:37;;;;;;;30.80;12.65;;;;;;;9.08;91.17;96576.97;5087221;28;20058;-66
2022/04/24 01:13:02;;;;;;;22.00;11.45;;;;;;;9.13;91.59;96577.59;5087114;28;20220;-66
2022/04/24 01:15:28;;;;;;;23.88;11.10;;;;;;;9.20;91.99;96581.66;5087262;28;20083;-66
2022/04/24 01:17:56;;;;;;;20.55;11.00;;;;;;;9.13;92.52;96565.34;5087307;28;20020;-66
2022/04/24 01:20:21;;;;;;;25.90;10.70;;;;;;;9.14;92.39;96566.22;5087140;28;20043;-66
2022/04/24 01:22:47;;;;;;;19.60;10.93;;;;;;;9.16;92.94;96553.84;5087042;28;20028;-66
2022/04/24 01:25:14;;;;;;;20.42;9.98;;;;;;;9.22;92.19;96553.56;5086726;28;20024;-66
2022/04/24 01:27:39;;;;;;;26.95;13.63;;;;;;;9.21;91.51;96551.88;5086938;28;20036;-66
2022/04/24 01:30:06;;;;;;;23.13;12.27;;;;;;;9.13;91.39;96564.47;5086959;28;20080;-66
2022/04/24 01:32:32;;;;;;;29.30;13.13;;;;;;;9.10;91.76;96564.63;5086791;28;20017;-66
2022/04/24 01:34:57;;;;;;;20.95;11.32;;;;;;;9.13;91.54;96572.34;5086632;28;20100;-66
2022/04/24 01:37:23;;;;;;;16.88;10.13;;;;;;;9.20;91.93;96577.25;5086952;28;20048;-66
2022/04/24 01:39:48;;;;;;;21.63;11.95;;;;;;;9.19;92.25;96579.94;5101558;28;20028;-66
2022/04/24 01:42:14;;;;;;;21.17;11.63;;;;;;;8.98;92.62;96576.53;5106696;28;20026;-66
2022/04/24 01:44:40;;;;;;;19.95;10.57;;;;;;;9.01;93.45;96586.06;5107346;28;20043;-66
2022/04/24 01:47:05;;;;;;;21.48;11.23;;;;;;;9.05;92.99;96582.38;5106927;28;20070;-66
2022/04/24 01:49:30;;;;;;;18.95;10.88;;;;;;;9.15;93.10;96588.88;5107189;28;20024;-66
2022/04/24 01:51:56;;;;;;;19.88;10.63;;;;;;;9.20;92.68;96602.66;5107445;28;20091;-66
2022/04/24 01:54:21;;;;;;;18.85;10.02;;;;;;;9.21;92.61;96599.94;5107388;28;20019;-66
2022/04/24 01:56:47;;;;;;;18.65;10.15;;;;;;;9.19;92.46;96595.69;5091334;28;20043;-66
2022/04/24 01:59:12;;;;;;;26.58;11.43;;;;;;;9.08;93.25;96595.34;5086686;28;20024;-66
2022/04/24 02:01:37;;;;;;;23.40;11.20;;;;;;;9.07;93.87;96597.13;5087197;28;20024;-66
2022/04/24 02:04:03;;;;;;;24.15;11.18;;;;;;;9.21;93.47;96599.13;5086818;28;20028;-66
2022/04/24 02:06:28;;;;;;;20.60;10.75;;;;;;;9.31;93.13;96611.75;5086363;28;20016;-66
2022/04/24 02:08:54;;;;;;;18.65;10.35;;;;;;;9.30;93.49;96610.03;5087134;28;20094;-66
2022/04/24 02:11:19;;;;;;;18.52;11.20;;;;;;;9.30;94.01;96610.03;5086851;28;20044;-66
2022/04/24 02:13:45;;;;;;;27.27;10.07;;;;;;;9.36;94.14;96616.78;5086780;28;20080;-66
2022/04/24 02:16:10;;;;;;;19.35;9.75;;;;;;;9.38;93.48;96626.28;5086968;28;20100;-66
2022/04/24 02:18:36;;;;;;;24.52;9.68;;;;;;;9.38;93.10;96623.66;5087479;28;20048;-66
2022/04/24 02:21:01;;;;;;;19.40;10.85;;;;;;;9.31;93.73;96637.13;5087719;28;20047;-66
2022/04/24 02:23:27;;;;;;;19.33;11.00;;;;;;;9.29;94.53;96629.31;5087531;28;20335;-66
2022/04/24 02:25:53;;;;;;;16.10;9.65;;;;;;;9.28;94.49;96642.53;5087381;28;20061;-66
2022/04/24 02:28:18;;;;;;;19.45;10.60;;;;;;;9.29;93.94;96634.56;5087423;28;20044;-66
2022/04/24 02:30:44;;;;;;;20.90;10.57;;;;;;;9.37;93.53;96644.72;5086753;28;20318;-66
2022/04/24 02:33:10;;;;;;;17.52;9.15;;;;;;;9.50;93.76;96643.22;5087384;28;20024;-66
2022/04/24 02:35:35;;;;;;;19.42;11.10;;;;;;;9.60;93.03;96649.75;5087439;28;20045;-66
2022/04/24 02:38:01;;;;;;;20.83;10.30;;;;;;;9.61;93.02;96646.19;5087447;28;20021;-66
2022/04/24 02:40:27;;;;;;;20.45;11.05;;;;;;;9.58;93.53;96646.34;5087339;28;20213;-66
2022/04/24 02:42:53;;;;;;;16.52;9.77;;;;;;;9.50;94.81;96648.50;5087684;28;20029;-66
2022/04/24 02:45:20;;;;;;;23.63;10.18;;;;;;;9.58;94.46;96648.97;5087318;28;20259;-66
2022/04/24 02:47:46;;;;;;;17.42;9.38;;;;;;;9.70;94.10;96661.53;5087393;28;20025;-66
2022/04/24 02:50:12;;;;;;;17.20;9.73;;;;;;;9.71;94.29;96652.75;5100339;28;20028;-66
2022/04/24 02:52:54;;;;;;;17.92;10.45;;;;;;;9.66;94.78;96659.97;5106921;28;20035;-66
2022/04/24 02:55:20;;;;;;;;;;;;;;;9.67;94.21;96662.53;5107913;28;20028;-66
2022/04/24 02:57:46;;;;;;;22.48;10.25;;;;;;;9.74;93.89;96661.31;5107292;28;19911;-66
2022/04/24 03:00:19;;;;;;;18.55;10.52;;;;;;;9.82;92.98;96660.97;5103897;28;20028;-66
2022/04/24 03:02:45;;;;;;;19.35;11.10;;;;;;;9.83;93.02;96654.75;5087132;28;20031;-66
2022/04/24 03:05:12;;;;;;;19.55;11.00;;;;;;;9.83;93.59;96657.38;5086941;28;20032;-66
2022/04/24 03:07:37;;;;;;;19.42;10.82;;;;;;;9.84;93.36;96654.69;5087534;28;20072;-66
2022/04/24 03:10:04;;;;;;;17.63;10.27;;;;;;;9.84;93.26;96659.13;5086895;28;20021;-66
2022/04/24 03:12:30;;;;;;;21.88;10.60;;;;;;;9.85;93.38;96647.69;5086735;28;20031;-66
2022/04/24 03:14:56;;;;;;;19.92;10.48;;;;;;;9.87;92.95;96653.72;5086931;28;20219;-66
2022/04/24 03:17:21;;;;;;;15.68;8.95;;;;;;;9.78;93.20;96654.16;5087542;28;20268;-66
2022/04/24 03:19:46;;;;;;;19.73;10.85;;;;;;;9.79;93.09;96655.84;5100306;28;20031;-66
2022/04/24 03:22:12;;;;;;;21.50;11.77;;;;;;;9.90;92.72;96658.81;5111158;28;20020;-66
2022/04/24 03:24:37;;;;;;;18.10;10.15;;;;;;;9.94;91.77;96663.00;5110718;28;20020;-66
2022/04/24 03:27:03;;;;;;;18.10;9.05;;;;;;;10.01;91.50;96661.78;5110347;28;20246;-66
2022/04/24 03:29:29;;;;;;;17.58;10.23;;;;;;;10.07;91.48;96665.00;5091232;28;20062;-66
2022/04/24 03:31:54;;;;;;;19.27;9.45;;;;;;;10.15;92.23;96669.88;5090677;28;20016;-66
2022/04/24 03:34:20;;;;;;;18.48;8.55;;;;;;;10.22;93.44;96666.03;5090009;28;20031;-66
2022/04/24 03:36:46;;;;;;;17.73;8.25;;;;;;;10.30;93.96;96674.38;5090288;28;20070;-66
2022/04/24 03:39:12;;;;;;;15.88;8.10;;;;;;;10.34;94.34;96675.91;5090462;28;20083;-66
2022/04/24 03:41:37;;;;;;;17.55;8.15;;;;;;;10.38;94.05;96682.75;5090860;28;20020;-66
2022/04/24 03:44:04;;;;;;;14.43;7.57;;;;;;;10.44;94.62;96682.47;5091278;28;20104;-66
2022/04/24 03:46:30;;;;;;;13.88;7.15;;;;;;;10.46;94.37;96684.06;5091055;28;20043;-66
2022/04/24 03:48:55;;;;;;;11.85;6.43;;;;;;;10.48;94.37;96689.25;5101599;28;20319;-66
2022/04/24 03:51:21;;;;;;;13.85;6.80;;;;;;;10.44;94.82;96685.91;5097495;28;20032;-66
2022/04/24 03:53:47;;;;;;;11.90;4.40;;;;;;;10.48;94.96;96687.47;5090912;28;20103;-66
2022/04/24 03:56:12;;;;;;;7.22;3.03;;;;;;;10.45;95.14;96682.34;5090529;28;20042;-66
2022/04/24 03:58:38;;;;;;;4.88;3.05;;;;;;;10.37;95.50;96675.78;5090425;28;20346;-66
2022/04/24 04:01:03;;;;;;;6.93;3.65;;;;;;;10.32;95.96;96688.31;5090698;28;20028;-66
2022/04/24 04:03:28;;;;;;;5.80;2.83;;;;;;;10.32;96.25;96683.06;5090359;28;20121;-66
2022/04/24 04:05:54;;;;;;;6.53;2.83;;;;;;;10.32;96.51;96680.44;5090558;28;20062;-66
2022/04/24 04:08:19;;;;;;;5.45;2.38;;;;;;;10.35;97.05;96685.53;5100278;28;20046;-66
2022/04/24 04:10:45;;;;;;;5.18;2.03;;;;;;;10.35;96.43;96693.41;5110845;28;20023;-66
2022/04/24 04:13:10;;;;;;;5.53;1.75;;;;;;;10.32;96.75;96688.31;5110279;28;20020;-66
2022/04/24 04:15:36;;;;;;;5.55;1.38;;;;;;;10.29;96.88;96688.47;5110405;28;20026;-66
2022/04/24 04:18:02;;;;;;;3.65;1.02;;;;;;;10.21;96.83;96687.97;5107496;28;20028;-66
2022/04/24 04:20:27;;;;;;;2.85;1.23;;;;;;;10.26;96.91;96688.59;5090777;28;20024;-66
2022/04/24 04:22:52;;;;;;;3.10;1.08;;;;;;;10.23;96.69;96686.13;5090234;28;20062;-66
2022/04/24 04:25:27;;;;;;;2.45;1.10;;;;;;;10.13;97.67;96692.75;5090037;28;20039;-66
2022/04/24 04:27:53;;;;;;;1.83;1.10;;;;;;;10.14;97.83;96689.19;5090676;28;20085;-66
2022/04/24 04:30:19;;;;;;;1.58;1.00;;;;;;;10.18;97.55;96691.59;5090465;28;20016;-66
2022/04/24 04:32:44;;;;;;;0.73;0.60;;;;;;;10.14;97.87;96689.19;5089953;28;20028;-66
2022/04/24 04:35:10;;;;;;;1.85;1.17;;;;;;;10.07;97.98;96690.44;5091133;28;20040;-66
2022/04/24 04:37:37;;;;;;;2.67;0.90;;;;;;;10.09;98.59;96696.44;5090272;28;20028;-66
2022/04/24 04:40:04;;;;;;;4.18;1.00;;;;;;;10.10;98.49;96692.91;5090035;28;20092;-66
2022/04/24 04:42:30;;;;;;;1.15;0.77;;;;;;;10.08;98.76;96694.75;5090247;28;20029;-66
2022/04/24 04:44:56;;;;;;;4.78;0.95;;;;;;;10.08;98.91;96700.00;5089928;28;20024;-66
2022/04/24 04:47:21;;;;;;;3.10;0.85;;;;;;;10.02;99.06;96700.25;5089866;28;20028;-66
2022/04/24 04:49:47;;;;;;;1.20;0.98;;;;;;;10.09;99.12;96713.06;5090557;28;20095;-66
2022/04/24 04:52:12;;;;;;;1.33;0.90;;;;;;;10.04;99.18;96709.81;5089715;28;20024;-66
2022/04/24 04:54:40;;;;;;;1.90;1.08;;;;;;;10.07;99.06;96711.44;5089979;28;20028;-66
2022/04/24 04:57:05;;;;;;;1.98;0.90;;;;;;;10.06;99.58;96712.34;5089962;28;20024;-66
2022/04/24 04:59:30;;;;;;;1.48;1.00;;;;;;;10.06;100.00;96717.63;5090327;28;20027;-66
2022/04/24 05:01:56;;;;;;;1.50;0.70;;;;;;;10.10;100.00;96719.19;5089656;28;20020;-66
2022/04/24 05:04:21;;;;;;;2.78;0.93;;;;;;;10.05;100.00;96731.66;5089435;28;20044;-66
2022/04/24 05:06:46;;;;;;;0.73;0.73;;;;;;;10.05;100.00;96726.41;5090117;28;20080;-66
2022/04/24 05:09:12;;;;;;;2.55;1.35;;;;;;;10.05;100.00;96731.66;5090695;28;20087;-66
2022/04/24 05:11:39;;;;;;;3.35;1.15;;;;;;;9.99;100.00;96731.94;5089812;28;20020;-66
2022/04/24 05:14:05;;;;;;;3.58;0.98;;;;;;;9.96;100.00;96724.19;5089818;28;20048;-66
2022/04/24 05:16:30;;;;;;;1.55;0.80;;;;;;;9.93;100.00;96735.72;5089869;28;20020;-66
2022/04/24 05:18:56;;;;;;;1.50;0.98;;;;;;;9.89;100.00;96734.16;5101869;28;20215;-66
2022/04/24 05:21:21;;;;;;;1.05;0.80;;;;;;;9.93;100.00;96742.72;5092694;28;20028;-66
2022/04/24 05:23:48;;;;;;;1.30;0.90;;;;;;;9.87;100.00;96738.63;5088978;28;20020;-66
2022/04/24 05:26:14;;;;;;;1.23;0.85;;;;;;;9.88;100.00;96745.59;5089044;28;20197;-66
2022/04/24 05:28:39;;;;;;;2.00;0.85;;;;;;;9.91;100.00;96744.59;5098154;28;20087;-66
2022/04/24 05:31:07;;;;;;;2.90;0.95;;;;;;;9.92;100.00;96751.56;5098107;28;20087;-66
2022/04/24 05:33:33;;;;;;;2.28;1.42;;;;;;;9.94;100.00;96744.47;5089427;28;20020;-66
2022/04/24 05:35:58;;;;;;;1.63;0.60;;;;;;;9.94;100.00;96749.72;5088760;28;20043;-66
2022/04/24 05:38:24;;;;;;;0.95;0.77;;;;;;;9.91;100.00;96744.59;5089565;28;20032;-66
2022/04/24 05:40:49;;;;;;;2.67;0.65;;;;;;;9.96;100.00;96753.09;5088410;28;20378;-66
2022/04/24 05:43:15;;;;;;;1.00;0.80;;;;;;;9.95;100.00;96751.41;5089626;28;20025;-66
2022/04/24 05:45:40;;;;;;;0.82;0.80;;;;;;;9.96;100.00;96755.72;5089259;28;20088;-66
2022/04/24 05:48:06;;;;;;;2.30;1.10;;;;;;;9.92;100.00;96756.81;5089887;28;20016;-66
2022/04/24 05:50:33;;;;;;;1.88;0.85;;;;;;;9.89;100.00;96752.56;5089644;28;20028;-66
2022/04/24 05:52:59;;;;;;;1.85;0.98;;;;;;;9.95;100.00;96760.16;5089175;28;20080;-66
2022/04/24 05:55:25;;;;;;;1.25;0.82;;;;;;;9.88;100.00;96755.25;5088321;28;20046;-66
2022/04/24 05:57:51;;;;;;;1.27;0.60;;;;;;;9.97;100.00;96765.34;5088028;28;20023;-66
2022/04/24 06:00:18;;;;;;;1.52;0.77;;;;;;;9.91;100.00;96765.63;5088124;28;20028;-66
2022/04/24 06:02:44;;;;;;;2.60;0.80;;;;;;;9.98;100.00;96761.78;5087583;28;20016;-66
2022/04/24 06:05:10;;;;;;;0.82;0.63;;;;;;;9.91;100.00;96760.38;5087921;28;20024;-66
2022/04/24 06:07:37;;;;;;;0.70;0.60;;;;;;;10.02;100.00;96763.34;5088212;28;20211;-66
2022/04/24 06:10:04;;;;;;;1.02;0.80;;;;;;;9.99;100.00;96758.22;5087730;28;20347;-66
2022/04/24 06:12:29;;;;;;;1.63;0.75;;;;;;;10.09;100.00;96770.03;5087602;28;20347;-66
2022/04/24 06:15:01;;;;;;;3.45;0.82;;;;;;;10.08;100.00;96763.09;5087679;28;20031;-66
2022/04/24 06:17:26;;;;;;;1.17;0.70;;;;;;;10.00;100.00;96759.94;5087249;28;20025;-66
2022/04/24 06:19:51;;;;;;;0.50;0.50;;;;;;;9.99;100.00;96756.44;5090206;28;20047;-66
2022/04/24 06:22:17;;;;;;;0.93;0.70;;;;;;;9.98;100.00;96761.78;5087339;28;20023;-66
2022/04/24 06:24:42;;;;;;;0.82;0.80;;;;;;;9.97;100.00;96758.28;5087397;28;20025;-66
2022/04/24 06:27:08;;;;;;;0.65;0.63;;;;;;;10.02;100.00;96758.06;5087582;28;20024;-66
2022/04/24 06:29:33;;;;;;;5.80;0.85;;;;;;;10.03;100.00;96759.81;5087190;28;20020;-66
2022/04/24 06:31:58;;;;;;;1.20;0.80;;;;;;;10.14;100.00;96763.66;5087502;28;20065;-66
2022/04/24 06:34:24;;;;;;;1.00;0.70;;;;;;;10.24;100.00;96758.81;5087194;28;20040;-66
2022/04/24 06:36:49;;;;;;;1.00;0.80;;;;;;;10.29;100.00;96762.06;5087710;28;20090;-66
2022/04/24 06:39:15;;;;;;;4.18;0.80;;;;;;;10.30;100.00;96769.03;5087510;28;20048;-66
2022/04/24 06:41:41;;;;;;;0.70;0.43;;;;;;;10.31;100.00;96762.84;5087713;28;20024;-66
2022/04/24 06:44:06;;;;;;;1.17;0.80;;;;;;;10.34;100.00;96771.44;5091587;28;20023;-66
2022/04/24 06:46:32;;;;;;;0.77;0.57;;;;;;;10.43;100.00;96762.25;5108052;28;20016;-66
2022/04/24 06:48:57;;;;;;;0.70;0.50;;;;;;;10.44;100.00;96772.69;5097747;28;20126;-66
2022/04/24 06:51:23;;;;;;;0.75;0.75;;;;;;;10.59;100.00;96768.47;5109180;28;20023;-66
2022/04/24 06:53:48;;;;;;;3.22;0.70;;;;;;;10.65;100.00;96776.06;5094449;28;20024;-66
2022/04/24 06:56:13;;;;;;;0.95;0.57;;;;;;;10.68;99.47;96773.28;5092131;28;20029;-66
2022/04/24 06:58:39;;;;;;;2.35;0.65;;;;;;;10.63;100.00;96784.03;5091662;28;20076;-66
2022/04/24 07:01:04;;;;;;;1.30;0.60;;;;;;;10.55;99.91;96785.34;5090379;28;20033;-65
2022/04/24 07:03:30;;;;;;;0.50;0.50;;;;;;;10.55;99.59;96780.94;5088105;28;20020;-66
2022/04/24 07:05:58;;;;;;;1.33;0.50;;;;;;;10.59;98.94;96776.38;5087503;28;20016;-66
2022/04/24 07:08:24;;;;;;;0.57;0.50;;;;;;;10.56;99.63;96779.13;5094262;28;20032;-66
2022/04/24 07:10:52;;;;;;;2.00;0.85;;;;;;;10.56;99.76;96776.50;5108652;28;20031;-66
2022/04/24 07:13:18;;;;;;;0.50;0.43;;;;;;;10.45;100.00;96773.56;5109516;28;20192;-66
2022/04/24 07:15:43;;;;;;;1.73;0.60;;;;;;;10.46;99.88;96778.75;5106091;28;20051;-66
2022/04/24 07:18:10;;;;;;;0.85;0.60;;;;;;;10.51;99.58;96783.78;5088966;28;20385;-66
2022/04/24 07:20:36;;;;;;;0.75;0.60;;;;;;;10.33;99.58;96776.78;5089323;28;20028;-66
2022/04/24 07:23:05;;;;;;;0.82;0.70;;;;;;;10.33;100.00;96782.91;5091551;28;20092;-66
2022/04/24 07:25:40;;;;;;;3.40;0.60;;;;;;;10.34;100.00;96781.09;5089025;28;20215;-66
2022/04/24 07:28:06;;;;;;;0.60;0.50;;;;;;;10.24;100.00;96782.47;5089111;28;20251;-66
2022/04/24 07:30:32;;;;;;;0.85;0.43;;;;;;;10.27;100.00;96782.31;5088801;28;20016;-66
2022/04/24 07:32:57;;;;;;;0.82;0.63;;;;;;;10.29;99.97;96783.13;5088420;28;20087;-66
2022/04/24 07:35:28;;;;;;;1.05;0.68;;;;;;;10.29;100.00;96788.38;5088306;28;20059;-66
2022/04/24 07:37:55;;;;;;;1.95;0.52;;;;;;;10.23;100.00;96794.78;5093284;28;20020;-66
2022/04/24 07:40:23;;;;;;;2.60;0.88;;;;;;;10.25;100.00;96795.53;5095741;28;20320;-66
2022/04/24 07:42:59;;;;;;;0.60;0.60;;;;;;;10.31;100.00;96797.03;5088917;28;20024;-65
2022/04/24 07:45:48;;;;;;;1.67;0.70;;;;;;;10.26;100.00;96799.03;5088327;28;20046;-67
2022/04/24 07:48:15;;;;;;;0.47;0.40;;;;;;;10.36;100.00;96800.28;5098221;28;20030;-67
2022/04/24 07:50:43;;;;;;;0.52;0.40;;;;;;;10.28;100.00;96797.16;5095948;28;20111;-66
2022/04/24 07:53:10;;;;;;;0.63;0.60;;;;;;;10.22;100.00;96808.00;5102481;28;20098;-66
2022/04/24 07:55:35;;;;;;;0.47;0.30;;;;;;;10.28;99.99;96802.41;5105295;28;20069;-66
2022/04/24 07:58:01;;;;;;;0.73;0.40;;;;;;;10.33;99.46;96805.69;5091456;28;20028;-66
2022/04/24 08:00:32;;;;;;;1.88;0.60;;;;;;;10.27;99.91;96805.97;5086660;28;20346;-66
2022/04/24 08:03:02;;;;;;;1.13;0.60;;;;;;;10.26;100.00;96809.53;5085945;28;20059;-66
2022/04/24 08:05:32;;;;;;;0.88;0.45;;;;;;;10.13;100.00;96809.25;5086711;28;20020;-66
2022/04/24 08:08:00;;;;;;;1.98;0.40;;;;;;;10.16;100.00;96803.84;5086636;28;20051;-66
2022/04/24 08:10:28;;;;;;;1.05;0.52;;;;;;;10.14;100.00;96810.09;5086608;28;20020;-66
2022/04/24 08:12:54;;;;;;;1.20;0.40;;;;;;;10.16;100.00;96806.47;5086536;28;20020;-66
2022/04/24 08:15:20;;;;;;;0.75;0.40;;;;;;;10.18;100.00;96806.41;5086379;28;20042;-66
2022/04/24 08:17:45;;;;;;;0.82;0.50;;;;;;;10.25;100.00;96815.75;5086483;28;20020;-66
2022/04/24 08:20:13;;;;;;;0.40;0.40;;;;;;;10.34;99.86;96823.16;5086389;28;20024;-66
2022/04/24 08:22:46;;;;;;;1.08;0.40;;;;;;;10.32;100.00;96819.78;5086266;28;20020;-66
2022/04/24 08:25:14;;;;;;;0.50;0.43;;;;;;;10.30;100.00;96822.47;5086375;28;20020;-66
2022/04/24 08:27:40;;;;;;;0.75;0.50;;;;;;;10.37;100.00;96828.28;5086284;28;20028;-66
2022/04/24 08:30:07;;;;;;;4.35;0.50;;;;;;;10.38;100.00;96820.31;5086254;28;20066;-66
2022/04/24 08:32:33;;;;;;;0.85;0.50;;;;;;;10.46;100.00;96827.84;5086408;28;20259;-66
2022/04/24 08:34:59;;;;;;;0.85;0.50;;;;;;;10.50;100.00;96830.28;5084955;28;20036;-66
2022/04/24 08:37:25;;;;;;;0.88;0.60;;;;;;;10.50;100.00;96829.41;5085371;28;20032;-66
2022/04/24 08:39:52;;;;;;;0.70;0.60;;;;;;;10.42;100.00;96826.31;5086280;28;20023;-66
2022/04/24 08:42:21;;;;;;;4.05;0.93;;;;;;;10.54;100.00;96836.25;5086287;28;20193;-66
2022/04/24 08:44:50;;;;;;;0.55;0.45;;;;;;;10.53;100.00;96834.53;5085853;28;20087;-66
2022/04/24 08:47:17;;;;;;;0.88;0.60;;;;;;;10.43;100.00;96839.38;5085802;28;20083;-66
2022/04/24 08:49:42;;;;;;;1.17;0.50;;;;;;;10.45;100.00;96844.56;5085819;28;20070;-66
2022/04/24 08:52:09;;;;;;;0.55;0.55;;;;;;;10.42;100.00;96847.34;5085866;28;20040;-66
2022/04/24 08:54:37;;;;;;;1.17;0.60;;;;;;;10.39;100.00;96855.38;5086025;28;20308;-66
2022/04/24 08:57:03;;;;;;;2.05;0.75;;;;;;;10.43;100.00;96849.03;5089627;28;20055;-67
2022/04/24 08:59:28;;;;;;;1.00;0.50;;;;;;;10.44;100.00;96851.59;5097253;28;20036;-66
2022/04/24 09:01:58;;;;;;;1.10;0.57;;;;;;;10.49;100.00;96854.00;5092064;28;20135;-66
2022/04/24 09:04:25;;;;;;;1.80;0.93;;;;;;;10.45;100.00;96849.84;5088276;28;20058;-66
2022/04/24 09:06:58;;;;;;;0.75;0.60;;;;;;;10.50;100.00;96850.44;5100864;28;20023;-66
2022/04/24 09:09:24;;;;;;;9.77;1.10;;;;;;;10.48;100.00;96862.84;5097377;28;20025;-66
2022/04/24 09:11:50;;;;;;;1.95;0.60;;;;;;;10.63;100.00;96868.22;5086622;28;20100;-66
2022/04/24 09:14:17;;;;;;;1.80;0.90;;;;;;;10.51;100.00;96860.06;5086381;28;20378;-66
2022/04/24 09:16:47;;;;;;;0.63;0.63;;;;;;;10.51;100.00;96855.63;5085740;28;20020;-66
2022/04/24 09:19:23;;;;;;;0.90;0.50;;;;;;;10.69;100.00;96860.03;5086529;28;20091;-66
2022/04/24 09:21:50;;;;;;;1.33;0.80;;;;;;;10.68;100.00;96866.22;5086053;28;20042;-66
2022/04/24 09:24:16;;;;;;;1.70;0.98;;;;;;;10.61;100.00;96859.56;5086575;28;20020;-66
2022/04/24 09:26:57;;;;;;;1.10;0.60;;;;;;;10.70;100.00;96860.91;5086173;28;20216;-66
2022/04/24 09:29:23;;;;;;;1.10;0.63;;;;;;;10.78;100.00;96858.72;5086202;28;20024;-66
2022/04/24 09:31:50;;;;;;;0.45;0.40;;;;;;;10.84;100.00;96871.59;5086634;28;20086;-66
2022/04/24 09:34:17;;;;;;;0.50;0.50;;;;;;;11.01;100.00;96858.47;5086309;28;20020;-66
2022/04/24 09:36:45;;;;;;;1.55;0.90;;;;;;;11.19;99.96;96862.81;5086545;28;20083;-66
2022/04/24 09:39:10;;;;;;;3.50;0.70;;;;;;;11.25;99.57;96866.94;5087337;28;20031;-66
2022/04/24 09:41:36;;;;;;;0.50;0.50;;;;;;;11.33;97.87;96873.50;5086847;28;20020;-66
2022/04/24 09:44:12;;;;;;;0.57;0.50;;;;;;;11.17;100.00;96869.94;5086514;28;20024;-66
2022/04/24 09:46:38;;;;;;;1.15;0.80;;;;;;;11.29;99.38;96874.59;5086960;28;20058;-66
2022/04/24 09:49:09;;;;;;;0.47;0.43;;;;;;;11.27;99.13;96883.53;5086903;28;20024;-66
2022/04/24 09:51:43;;;;;;;1.00;0.63;;;;;;;11.21;98.45;96879.41;5086381;28;20062;-66
2022/04/24 09:54:09;;;;;;;1.42;0.88;;;;;;;11.21;100.00;96881.19;5088438;28;20020;-66
2022/04/24 09:56:35;;;;;;;1.00;0.70;;;;;;;11.31;99.64;96883.28;5087073;28;20028;-66
2022/04/24 09:59:01;;;;;;;0.82;0.60;;;;;;;11.30;99.65;96886.88;5084897;28;20024;-65
2022/04/24 10:01:27;;;;;;;3.28;0.70;;;;;;;11.45;98.17;96878.16;5090102;28;20027;-65
2022/04/24 10:03:54;;;;;;;0.77;0.50;;;;;;;11.54;97.82;96884.75;5104787;28;20059;-65
2022/04/24 10:06:22;;;;;;;1.17;0.82;;;;;;;11.67;98.16;96896.44;5085916;28;20023;-66
2022/04/24 10:08:50;;;;;;;1.05;0.80;;;;;;;11.82;98.26;96895.63;5084710;28;20047;-65
2022/04/24 10:11:16;;;;;;;1.95;0.70;;;;;;;11.73;97.29;96894.31;5089861;28;20081;-65
2022/04/24 10:13:46;;;;;;;2.30;1.00;;;;;;;11.82;95.84;96896.47;5104664;28;20327;-65
2022/04/24 10:16:51;;;;;;;0.93;0.80;;;;;;;11.75;96.98;96900.38;5088037;28;20044;-65
2022/04/24 10:19:25;;;;;;;0.90;0.65;;;;;;;11.80;96.94;96906.25;5084651;28;20028;-65
2022/04/24 10:22:17;;;;;;;2.72;0.90;;;;;;;11.82;96.86;96912.31;5084357;28;20020;-65
2022/04/24 10:24:44;;;;;;;1.80;1.03;;;;;;;11.81;96.98;96910.59;5084480;28;20020;-65
2022/04/24 10:27:11;;;;;;;1.38;0.88;;;;;;;11.86;98.16;96908.56;5084392;28;20291;-65
2022/04/24 10:29:50;;;;;;;2.63;0.85;;;;;;;11.58;97.59;96907.41;5084571;28;20021;-65
2022/04/24 10:32:32;;;;;;;0.93;0.65;;;;;;;11.69;96.50;96910.38;5082963;28;20020;-65
2022/04/24 10:35:01;;;;;;;1.98;1.35;;;;;;;11.59;97.04;96909.97;5083205;28;20100;-65
2022/04/24 10:37:29;;;;;;;1.98;1.40;;;;;;;11.58;95.89;96923.22;5082105;28;20068;-65
2022/04/24 10:39:58;;;;;;;2.65;1.48;;;;;;;11.54;96.30;96917.22;5090989;28;20036;-65
2022/04/24 10:42:34;;;;;;;2.60;1.15;;;;;;;11.49;95.96;96929.78;5103409;28;20046;-66
2022/04/24 10:45:20;;;;;;;2.95;1.45;;;;;;;11.39;96.28;96923.25;5102921;28;20027;-65
2022/04/24 10:47:48;;;;;;;2.55;1.35;;;;;;;11.24;97.87;96928.44;5103686;28;20031;-65
2022/04/24 10:50:20;;;;;;;1.85;1.23;;;;;;;11.27;97.74;96929.16;5090323;28;20062;-65
2022/04/24 10:52:48;;;;;;;2.42;1.60;;;;;;;11.34;98.45;96930.53;5083799;28;20047;-65
2022/04/24 10:55:22;;;;;;;5.50;2.08;;;;;;;11.34;98.67;96934.94;5083350;28;20024;-65
2022/04/24 10:57:57;;;;;;;3.75;1.60;;;;;;;11.31;98.45;96935.97;5082337;28;20084;-65
2022/04/24 11:00:28;;;;;;;4.90;2.38;;;;;;;11.34;97.38;96938.44;5083510;28;20266;-65
2022/04/24 11:03:05;;;;;;;4.33;2.53;;;;;;;11.29;97.64;96937.81;5083040;28;20047;-66
2022/04/24 11:05:36;;;;;;;6.43;3.22;;;;;;;11.22;98.02;96941.69;5083263;28;20031;-66
2022/04/24 11:08:03;;;;;;;6.63;3.45;;;;;;;11.16;99.15;96947.22;5083483;28;20025;-66
2022/04/24 11:10:28;;;;;;;7.53;3.30;;;;;;;11.19;99.02;96952.34;5082647;28;20047;-65
2022/04/24 11:12:55;;;;;;;7.30;3.50;;;;;;;11.22;98.96;96961.88;5083004;28;20332;-65
2022/04/24 11:15:21;;;;;;;6.45;2.60;;;;;;;11.20;99.04;96959.31;5083069;28;20028;-65
2022/04/24 11:17:46;;;;;;;10.82;3.92;;;;;;;11.17;99.74;96953.38;5092020;28;20027;-65
2022/04/24 11:20:16;;;;;;;7.13;3.80;;;;;;;11.22;98.86;96957.47;5103271;28;20020;-65
2022/04/24 11:22:53;;;;;;;6.72;3.70;;;;;;;11.09;99.64;96960.75;5102371;28;20024;-65
2022/04/24 11:25:20;;;;;;;12.32;4.72;;;;;;;11.22;98.68;96962.75;5102665;28;20099;-65
2022/04/24 11:27:54;;;;;;;8.02;4.10;;;;;;;11.12;98.95;96966.75;5087974;28;20031;-65
2022/04/24 11:30:22;;;;;;;10.18;5.22;;;;;;;11.24;99.15;96970.56;5082738;28;20021;-65